KLSF/LSF METAR and TAF weather

Enter ICAO airport designator
Station Type Date Time Source
KLSF METAR 2023/02/05 13:20 UTC NOAA

KLSF 051320Z AUTO 00000KT 10SM SCT043 BKN050 BKN065 07/02 A3033 RMK AO2 SLP277 $


Station Type Date Time Source
KLSF Decoded METAR 2023/02/05 13:20 UTC NOAA

Fort Benning, GA, United States (KLSF) 32-20N 084-50W 130M
Feb 05, 2023 - 08:20 AM EST / 2023.02.05 1320 UTC
Wind: Calm:0
Visibility: 10 mile(s):0
Sky conditions: mostly cloudy
Temperature: 44 F (7 C)
Dew Point: 35 F (2 C)
Relative Humidity: 70%
Pressure (altimeter): 30.33 in. Hg (1027 hPa)
ob: KLSF 051320Z AUTO 00000KT 10SM SCT043 BKN050 BKN065 07/02 A3033 RMK AO2 SLP277
cycle: 13

Station Type Date Time Source
KLSF TAF 2023/02/03 22:57 UTC NOAA

TAF TAF KLSF 032200Z 0322/0504 34010G15KT 9999 SKC QNH3028INS
BECMG 0400/0401 36006KT 9999 SKC QNH3035INS
BECMG 0415/0416 10009KT 9999 SKC QNH3045INS TX13/0322Z TNM03/0412Z LAST NO
AMDS AFT 0404 NEXT 0414

Example: see airport list